CST,Max TemperatureF,Mean TemperatureF,Min TemperatureF,Max Dew PointF,MeanDew PointF,Min DewpointF,Max Humidity, Mean Humidity, Min Humidity, Max Sea Level PressureIn, Mean Sea Level PressureIn, Min Sea Level PressureIn, Max VisibilityMiles, Mean VisibilityMiles, Min VisibilityMiles, Max Wind SpeedMPH, Mean Wind SpeedMPH, Max Gust SpeedMPH,PrecipitationIn, CloudCover, Events, WindDirDegrees
2012-2-1,69,63,57,64,60,57,100,95,90,30.25,30.18,30.14,10,6,1,15,6,20,1.71,6,Rain,162
2012-2-2,72,66,59,63,60,57,97,85,73,30.22,30.17,30.14,10,5,0,10,4,13,0.00,7,Fog,27
2012-2-3,68,64,60,61,59,56,97,83,68,30.22,30.20,30.17,10,10,9,18,9,23,0.00,4,,102
2012-2-4,70,67,63,65,62,58,93,86,78,30.18,30.13,30.08,10,9,4,16,8,20,0.00,6,,123
2012-2-5,70,63,55,65,61,46,100,83,66,30.15,30.08,30.04,10,5,0,17,7,22,0.00,6,Fog,359
2012-2-6,64,58,51,49,46,43,77,67,56,30.19,30.14,30.12,10,10,10,15,8,20,0.00,5,,351
2012-2-7,73,63,52,54,47,42,89,62,35,30.18,30.14,30.09,10,10,8,10,6,14,0.00,2,,3
2012-2-8,69,60,50,41,38,36,64,48,32,30.26,30.21,30.16,10,10,10,17,9,23,0.00,1,,352
2012-2-9,63,53,43,43,38,33,76,56,36,30.32,30.24,30.17,10,10,10,12,6,20,0.00,0,,13
2012-2-10,61,55,49,49,43,36,89,64,39,30.17,30.09,29.99,10,9,6,17,4,21,0.02,4,Rain,354
2012-2-11,53,43,33,46,30,13,93,60,26,30.44,30.21,30.06,10,10,7,29,15,37,0.00,3,,336
2012-2-12,49,39,28,18,12,8,50,35,19,30.53,30.43,30.35,10,10,10,17,9,22,0.00,0,,357
2012-2-13,60,46,32,52,34,17,72,55,37,30.36,30.19,30.00,10,10,10,18,8,23,0.02,4,,100
2012-2-14,72,62,52,64,59,50,93,81,68,30.10,29.99,29.93,10,7,1,21,7,25,0.56,6,Rain,11
2012-2-15,62,55,47,63,51,45,100,88,75,30.22,30.14,30.08,10,6,0,12,6,16,0.01,5,Fog-Rain,84
2012-2-16,75,69,62,68,64,55,100,87,73,30.12,30.08,30.03,10,7,0,16,5,21,1.50,7,Fog-Rain-Thunderstorm,117
2012-2-17,70,64,58,58,55,53,93,77,61,30.12,30.06,30.00,10,10,9,7,4,15,T,5,,29
2012-2-18,70,64,58,66,60,55,97,91,84,30.00,29.84,29.69,10,6,1,30,9,39,1.82,7,Rain,71
2012-2-19,65,56,47,61,51,39,100,78,56,30.11,29.86,29.70,10,8,0,24,12,35,0.01,7,Fog,316
2012-2-20,65,53,41,50,40,33,89,60,31,30.23,30.17,30.09,10,10,10,14,6,18,0.00,0,,97
2012-2-21,67,60,52,58,53,50,93,83,72,30.24,30.17,30.07,10,10,6,14,6,16,0.05,5,Rain-Thunderstorm,137
2012-2-22,69,60,51,67,58,50,100,88,76,30.06,29.95,29.78,10,5,0,22,8,31,0.03,4,Fog-Rain,190
2012-2-23,76,72,67,68,66,64,97,88,79,29.82,29.78,29.74,10,7,3,25,14,43,0.01,8,,223
2012-2-24,81,68,54,68,50,25,97,64,30,30.23,29.94,29.77,10,9,4,36,16,45,0.01,7,,294
2012-2-25,61,55,48,35,27,19,54,37,20,30.38,30.29,30.20,10,10,10,23,8,30,T,1,Rain,16
2012-2-26,60,56,52,48,40,31,83,62,41,30.37,30.30,30.27,10,9,2,16,8,23,T,8,Rain,83
2012-2-27,61,57,52,58,55,48,93,87,80,30.33,30.29,30.25,10,8,2,14,5,41,0.07,8,Rain,50
2012-2-28,65,63,60,63,61,57,100,95,90,30.30,30.26,30.21,10,2,0,13,7,26,0.01,8,Fog,114
2012-2-29,74,69,64,68,64,62,93,83,73,30.19,30.13,30.03,10,8,0,16,10,22,0.00,8,Fog,149